Time;durP1;ratioP1;P1;durP2;ratioP2;P2;SDS_P1;SDS_P2;PMS_P1;PMS_P2;Temp;Humidity;BMP_temperature;BMP_pressure;BME280_temperature;BME280_humidity;BME280_pressure;Samples;Min_cycle;Max_cycle;Signal;HPM_P1;HPM_P2
2022/12/20 00:01:48;;;;;;;2.13;0.30;;;;;;;;;;5100009;28;20047;-74
2022/12/20 00:04:18;;;;;;;1.17;0.40;;;;;;;;;;5097280;28;20043;-72
2022/12/20 00:06:48;;;;;;;0.17;0.13;;;;;;;;;;5098563;28;20506;-73
2022/12/20 00:09:19;;;;;;;1.85;0.85;;;;;;;;;;5109358;28;20504;-72
2022/12/20 00:11:50;;;;;;;0.50;0.20;;;;;;;;;;5109253;28;20048;-73
2022/12/20 00:14:20;;;;;;;1.40;0.30;;;;;;;;;;5089270;28;20056;-72
2022/12/20 00:16:52;;;;;;;2.42;0.30;;;;;;;;;;5086366;28;20044;-72
2022/12/20 00:19:22;;;;;;;1.02;0.25;;;;;;;;;;5087967;28;20052;-72
2022/12/20 00:21:52;;;;;;;1.30;0.52;;;;;;;;;;5089157;28;20052;-73
2022/12/20 00:24:22;;;;;;;1.17;0.30;;;;;;;;;;5089132;28;20060;-72
2022/12/20 00:26:54;;;;;;;2.50;0.32;;;;;;;;;;5088912;28;20059;-72
2022/12/20 00:29:24;;;;;;;1.98;0.35;;;;;;;;;;5086384;28;20616;-73
2022/12/20 00:31:54;;;;;;;1.55;0.63;;;;;;;;;;5088727;28;20044;-73
2022/12/20 00:34:24;;;;;;;1.42;0.32;;;;;;;;;;5088674;28;20044;-72
2022/12/20 00:36:56;;;;;;;5.72;0.50;;;;;;;;;;5085855;28;20044;-73
2022/12/20 00:39:26;;;;;;;1.48;0.40;;;;;;;;;;5086409;28;20052;-73
2022/12/20 00:41:56;;;;;;;1.42;0.30;;;;;;;;;;5087355;28;20054;-73
2022/12/20 00:44:27;;;;;;;3.25;0.40;;;;;;;;;;5087968;28;20052;-73
2022/12/20 00:46:57;;;;;;;1.48;0.28;;;;;;;;;;5086475;28;20402;-75
2022/12/20 00:49:27;;;;;;;2.17;0.32;;;;;;;;;;5088592;28;20052;-73
2022/12/20 00:51:57;;;;;;;4.82;0.47;;;;;;;;;;5088061;28;20434;-73
2022/12/20 00:54:27;;;;;;;0.85;0.35;;;;;;;;;;5086164;28;20534;-76
2022/12/20 00:56:57;;;;;;;4.13;0.50;;;;;;;;;;5087654;28;20149;-73
2022/12/20 00:59:26;;;;;;;1.95;0.40;;;;;;;;;;5087873;28;20047;-73
2022/12/20 01:01:56;;;;;;;2.70;0.40;;;;;;;;;;5071655;28;20048;-73
2022/12/20 01:04:26;;;;;;;1.13;0.30;;;;;;;;;;5067422;28;20063;-77
2022/12/20 01:06:56;;;;;;;2.35;0.40;;;;;;;;;;5067227;28;20044;-73
2022/12/20 01:09:26;;;;;;;4.85;0.43;;;;;;;;;;5067099;28;20056;-72
2022/12/20 01:11:56;;;;;;;1.58;0.35;;;;;;;;;;5067088;28;20048;-73
2022/12/20 01:14:26;;;;;;;2.45;0.40;;;;;;;;;;5067726;28;20044;-73
2022/12/20 01:16:56;;;;;;;2.42;0.52;;;;;;;;;;5083006;28;20048;-73
2022/12/20 01:19:26;;;;;;;1.20;0.43;;;;;;;;;;5067371;28;20487;-73
2022/12/20 01:21:55;;;;;;;1.00;0.40;;;;;;;;;;5082207;28;20095;-72
2022/12/20 01:24:25;;;;;;;2.53;0.43;;;;;;;;;;5081697;28;20067;-73
2022/12/20 01:26:55;;;;;;;2.22;0.40;;;;;;;;;;5067145;28;20431;-73
2022/12/20 01:29:25;;;;;;;2.72;0.40;;;;;;;;;;5067102;28;20049;-74
2022/12/20 01:31:55;;;;;;;1.23;0.40;;;;;;;;;;5065981;28;20131;-73
2022/12/20 01:34:25;;;;;;;2.88;0.30;;;;;;;;;;5067013;28;20050;-74
2022/12/20 01:36:54;;;;;;;1.23;0.43;;;;;;;;;;5065786;28;20049;-73
2022/12/20 01:39:24;;;;;;;1.77;0.38;;;;;;;;;;5067184;28;20044;-73
2022/12/20 01:41:54;;;;;;;3.50;0.60;;;;;;;;;;5067105;28;20048;-72
2022/12/20 01:44:24;;;;;;;1.20;0.40;;;;;;;;;;5065344;28;20052;-74
2022/12/20 01:46:55;;;;;;;2.47;0.50;;;;;;;;;;5066759;28;20043;-73
2022/12/20 01:49:29;;;;;;;2.10;0.40;;;;;;;;;;5065471;28;20480;-72
2022/12/20 01:52:12;;;;;;;2.38;0.60;;;;;;;;;;5066533;28;20055;-72
2022/12/20 01:55:07;;;;;;;2.25;0.82;;;;;;;;;;5066058;28;20064;-73
2022/12/20 01:57:43;;;;;;;2.50;0.50;;;;;;;;;;5067194;28;20056;-73
2022/12/20 02:00:14;;;;;;;5.18;0.70;;;;;;;;;;5081982;28;20053;-73
2022/12/20 02:02:46;;;;;;;2.95;0.32;;;;;;;;;;5082065;28;20053;-73
2022/12/20 02:05:19;;;;;;;2.13;0.57;;;;;;;;;;5066846;28;20053;-73
2022/12/20 02:07:53;;;;;;;3.17;0.45;;;;;;;;;;5066923;28;20052;-75
2022/12/20 02:10:33;;;;;;;2.38;0.30;;;;;;;;;;5066617;28;20052;-73
2022/12/20 02:13:13;;;;;;;1.63;0.40;;;;;;;;;;5081195;28;20060;-72
2022/12/20 02:15:57;;;;;;;5.80;0.60;;;;;;;;;;5066709;28;20040;-73
2022/12/20 02:18:34;;;;;;;1.67;0.28;;;;;;;;;;5066661;28;20048;-72
2022/12/20 02:21:35;;;;;;;2.55;0.47;;;;;;;;;;5065150;28;20040;-73
2022/12/20 02:24:23;;;;;;;3.47;0.50;;;;;;;;;;5064809;28;20061;-72
2022/12/20 02:27:12;;;;;;;1.48;0.22;;;;;;;;;;5066924;28;20048;-73
2022/12/20 02:30:03;;;;;;;1.95;0.17;;;;;;;;;;5065538;28;20415;-72
2022/12/20 02:32:50;;;;;;;0.88;0.30;;;;;;;;;;5081812;28;20045;-73
2022/12/20 02:35:26;;;;;;;1.25;0.35;;;;;;;;;;5064729;28;20543;-73
2022/12/20 02:38:02;;;;;;;2.03;0.30;;;;;;;;;;5081641;28;20049;-73
2022/12/20 02:40:39;;;;;;;2.63;0.47;;;;;;;;;;5064898;28;20036;-73
2022/12/20 02:45:14;;;;;;;2.28;0.40;;;;;;;;;;5069356;28;20040;-73
2022/12/20 02:46:03;;;;;;;1.58;0.43;;;;;;;;;;5068719;28;20560;-73
2022/12/20 02:48:36;;;;;;;2.50;0.35;;;;;;;;;;5068341;28;20406;-73
2022/12/20 02:51:10;;;;;;;1.77;0.30;;;;;;;;;;5070733;28;20058;-73
2022/12/20 02:53:40;;;;;;;0.95;0.30;;;;;;;;;;5070621;28;20403;-73
2022/12/20 02:56:32;;;;;;;2.03;0.47;;;;;;;;;;5068790;28;20437;-73
2022/12/20 02:59:08;;;;;;;1.73;0.20;;;;;;;;;;5068721;28;20064;-73
2022/12/20 03:01:45;;;;;;;4.28;0.50;;;;;;;;;;5068485;28;20056;-73
2022/12/20 03:04:16;;;;;;;0.88;0.13;;;;;;;;;;5068362;28;20063;-73
2022/12/20 03:07:05;;;;;;;0.57;0.20;;;;;;;;;;5068012;28;20506;-73
2022/12/20 03:09:38;;;;;;;0.20;0.20;;;;;;;;;;5067858;28;20613;-73
2022/12/20 03:12:10;;;;;;;0.52;0.32;;;;;;;;;;5069893;28;20056;-73
2022/12/20 03:14:41;;;;;;;2.55;0.45;;;;;;;;;;5070226;28;20048;-73
2022/12/20 03:17:12;;;;;;;2.42;0.47;;;;;;;;;;5068177;28;20052;-73
2022/12/20 03:19:42;;;;;;;1.33;0.30;;;;;;;;;;5084916;28;20503;-73
2022/12/20 03:22:12;;;;;;;1.00;0.38;;;;;;;;;;5068289;28;20045;-72
2022/12/20 03:24:42;;;;;;;0.22;0.15;;;;;;;;;;5069887;28;20056;-73
2022/12/20 03:27:13;;;;;;;3.63;0.20;;;;;;;;;;5084962;28;20553;-73
2022/12/20 03:29:44;;;;;;;0.55;0.20;;;;;;;;;;5084867;28;20052;-73
2022/12/20 03:32:15;;;;;;;3.60;0.50;;;;;;;;;;5068552;28;20648;-73
2022/12/20 03:34:45;;;;;;;0.85;0.32;;;;;;;;;;5069077;28;20513;-73
2022/12/20 03:37:19;;;;;;;4.55;0.68;;;;;;;;;;5067635;28;20053;-73
2022/12/20 03:39:49;;;;;;;2.83;0.30;;;;;;;;;;5085445;28;20529;-73
2022/12/20 03:42:19;;;;;;;0.85;0.30;;;;;;;;;;5069604;28;20049;-73
2022/12/20 03:44:49;;;;;;;0.95;0.30;;;;;;;;;;5084995;28;20055;-72
2022/12/20 03:47:20;;;;;;;4.40;0.47;;;;;;;;;;5084573;28;20052;-73
2022/12/20 03:49:50;;;;;;;2.20;0.40;;;;;;;;;;5067807;28;20057;-73
2022/12/20 03:52:21;;;;;;;1.83;0.30;;;;;;;;;;5084303;28;20423;-73
2022/12/20 03:54:51;;;;;;;0.90;0.20;;;;;;;;;;5084234;28;20561;-73
2022/12/20 03:57:26;;;;;;;0.95;0.20;;;;;;;;;;5068768;28;20537;-73
2022/12/20 03:59:58;;;;;;;1.20;0.20;;;;;;;;;;5069480;28;20148;-72
2022/12/20 04:02:29;;;;;;;0.40;0.40;;;;;;;;;;5084134;28;20057;-72
2022/12/20 04:05:00;;;;;;;1.27;0.20;;;;;;;;;;5084366;28;20056;-72
2022/12/20 04:07:29;;;;;;;2.72;0.20;;;;;;;;;;5066958;28;20049;-72
2022/12/20 04:09:59;;;;;;;1.15;0.50;;;;;;;;;;5084071;28;20052;-72
2022/12/20 04:12:30;;;;;;;0.52;0.28;;;;;;;;;;5083592;28;20060;-73
2022/12/20 04:15:01;;;;;;;0.95;0.22;;;;;;;;;;5084007;28;20079;-72
2022/12/20 04:17:30;;;;;;;1.20;0.30;;;;;;;;;;5066712;28;20048;-72
2022/12/20 04:20:17;;;;;;;0.38;0.25;;;;;;;;;;5083719;28;20079;-73
2022/12/20 04:23:01;;;;;;;1.92;0.38;;;;;;;;;;5067044;28;20064;-72
2022/12/20 04:25:31;;;;;;;1.42;0.13;;;;;;;;;;5068783;28;20052;-73
2022/12/20 04:28:01;;;;;;;2.25;0.38;;;;;;;;;;5066843;28;20553;-73
2022/12/20 04:30:31;;;;;;;1.25;0.50;;;;;;;;;;5068498;28;20040;-73
2022/12/20 04:33:03;;;;;;;0.50;0.30;;;;;;;;;;5069007;28;20779;-73
2022/12/20 04:35:33;;;;;;;0.30;0.20;;;;;;;;;;5083355;28;20063;-73
2022/12/20 04:38:04;;;;;;;2.92;0.55;;;;;;;;;;5068822;28;20407;-72
2022/12/20 04:40:34;;;;;;;2.05;0.60;;;;;;;;;;5082953;28;20052;-72
2022/12/20 04:43:06;;;;;;;1.45;0.20;;;;;;;;;;5065893;28;20061;-72
2022/12/20 04:45:36;;;;;;;2.05;0.50;;;;;;;;;;5065823;28;20049;-72
2022/12/20 04:48:06;;;;;;;1.75;0.50;;;;;;;;;;5066059;28;20052;-72
2022/12/20 04:50:56;;;;;;;3.00;0.50;;;;;;;;;;5083665;28;20059;-73
2022/12/20 04:56:39;;;;;;;2.70;0.38;;;;;;;;;;5083139;28;20055;-72
2022/12/20 04:59:15;;;;;;;1.60;0.32;;;;;;;;;;5065808;28;20523;-72
2022/12/20 05:01:48;;;;;;;1.67;0.30;;;;;;;;;;5050432;28;20530;-72
2022/12/20 05:04:38;;;;;;;0.43;0.10;;;;;;;;;;5065428;28;20423;-73
2022/12/20 05:07:08;;;;;;;0.80;0.47;;;;;;;;;;5081930;28;20057;-72
2022/12/20 05:09:40;;;;;;;1.08;0.32;;;;;;;;;;5082567;28;20041;-73
2022/12/20 05:12:11;;;;;;;1.17;0.40;;;;;;;;;;5083382;28;20621;-73
2022/12/20 05:14:40;;;;;;;0.47;0.25;;;;;;;;;;5082746;28;20041;-73
2022/12/20 05:17:11;;;;;;;0.80;0.28;;;;;;;;;;5082198;28;20427;-73
2022/12/20 05:19:41;;;;;;;0.77;0.20;;;;;;;;;;5082340;28;20049;-72
2022/12/20 05:28:03;;;;;;;1.63;0.30;;;;;;;;;;5082357;28;20056;-72
2022/12/20 05:30:36;;;;;;;0.40;0.20;;;;;;;;;;5065996;28;20769;-73
2022/12/20 05:33:06;;;;;;;2.50;0.32;;;;;;;;;;5082183;28;20057;-72
2022/12/20 05:35:36;;;;;;;1.35;0.30;;;;;;;;;;5082066;28;20076;-73
2022/12/20 05:38:10;;;;;;;1.02;0.35;;;;;;;;;;5082893;28;20052;-73
2022/12/20 05:40:41;;;;;;;1.40;0.30;;;;;;;;;;5066166;28;20060;-73
2022/12/20 05:43:11;;;;;;;0.63;0.20;;;;;;;;;;5067270;28;20045;-73
2022/12/20 05:45:50;;;;;;;0.43;0.20;;;;;;;;;;5065385;28;20052;-72
2022/12/20 05:48:29;;;;;;;2.55;0.38;;;;;;;;;;5065000;28;20051;-73
2022/12/20 05:51:00;;;;;;;1.38;0.40;;;;;;;;;;5065433;28;20048;-72
2022/12/20 05:53:33;;;;;;;1.25;0.40;;;;;;;;;;5081681;28;20523;-73
2022/12/20 05:56:05;;;;;;;0.65;0.30;;;;;;;;;;5065404;28;20060;-72
2022/12/20 05:58:39;;;;;;;2.25;0.40;;;;;;;;;;5065004;28;20732;-73
2022/12/20 06:01:09;;;;;;;0.85;0.30;;;;;;;;;;5081993;28;20055;-73
2022/12/20 06:03:40;;;;;;;0.95;0.28;;;;;;;;;;5082903;28;20526;-73
2022/12/20 06:06:14;;;;;;;1.27;0.30;;;;;;;;;;5081841;28;20053;-73
2022/12/20 06:08:47;;;;;;;0.90;0.40;;;;;;;;;;5081570;28;20040;-73
2022/12/20 06:11:29;;;;;;;0.70;0.20;;;;;;;;;;5050669;28;20498;-72
2022/12/20 06:14:04;;;;;;;1.38;0.22;;;;;;;;;;5082091;28;20055;-72
2022/12/20 06:16:36;;;;;;;0.13;0.13;;;;;;;;;;5065245;28;20049;-72
2022/12/20 06:19:09;;;;;;;0.47;0.30;;;;;;;;;;5082236;28;20049;-72
2022/12/20 06:21:47;;;;;;;1.48;0.20;;;;;;;;;;5081801;28;20507;-73
2022/12/20 06:24:24;;;;;;;1.52;0.20;;;;;;;;;;5065023;28;20060;-73
2022/12/20 06:26:54;;;;;;;0.98;0.20;;;;;;;;;;5065142;28;20053;-72
2022/12/20 06:29:26;;;;;;;1.58;0.20;;;;;;;;;;5081450;28;20052;-72
2022/12/20 06:32:06;;;;;;;0.55;0.20;;;;;;;;;;5064131;28;20061;-72
2022/12/20 06:34:38;;;;;;;1.48;0.28;;;;;;;;;;5064749;28;20057;-72
2022/12/20 06:37:08;;;;;;;1.50;0.30;;;;;;;;;;5064182;28;20060;-72
2022/12/20 06:39:41;;;;;;;1.83;0.32;;;;;;;;;;5081597;28;20867;-72
2022/12/20 06:42:11;;;;;;;1.25;0.20;;;;;;;;;;5064321;28;20506;-72
2022/12/20 06:44:45;;;;;;;0.20;0.13;;;;;;;;;;5064011;28;20048;-72
2022/12/20 06:47:15;;;;;;;0.10;0.10;;;;;;;;;;5064885;28;20441;-72
2022/12/20 06:49:45;;;;;;;1.35;0.20;;;;;;;;;;5081687;28;20059;-72
2022/12/20 06:52:20;;;;;;;;;;;;;;;;;;5064782;28;20067;-73
2022/12/20 06:54:54;;;;;;;0.85;0.28;;;;;;;;;;5081379;28;19930;-73
2022/12/20 06:57:24;;;;;;;2.47;0.55;;;;;;;;;;5065033;28;20056;-73
2022/12/20 06:59:55;;;;;;;0.52;0.25;;;;;;;;;;5081330;28;20060;-73
2022/12/20 07:02:24;;;;;;;1.40;0.30;;;;;;;;;;5065817;28;20049;-73
2022/12/20 07:04:56;;;;;;;1.00;0.25;;;;;;;;;;5066200;28;20040;-72
2022/12/20 07:07:26;;;;;;;0.52;0.13;;;;;;;;;;5064994;28;20089;-72
2022/12/20 07:09:56;;;;;;;2.03;0.30;;;;;;;;;;5065697;28;20056;-72
2022/12/20 07:12:25;;;;;;;3.25;0.88;;;;;;;;;;5066232;28;20388;-73
2022/12/20 07:14:55;;;;;;;0.85;0.40;;;;;;;;;;5065128;28;20052;-73
2022/12/20 07:17:25;;;;;;;0.50;0.13;;;;;;;;;;5081924;28;20060;-73
2022/12/20 07:19:55;;;;;;;1.00;0.22;;;;;;;;;;5065933;28;20052;-73
2022/12/20 07:22:25;;;;;;;0.52;0.40;;;;;;;;;;5066084;28;20048;-72
2022/12/20 07:24:54;;;;;;;0.73;0.20;;;;;;;;;;5066200;28;20056;-72
2022/12/20 07:27:24;;;;;;;2.30;0.30;;;;;;;;;;5065635;28;20052;-73
2022/12/20 07:29:55;;;;;;;1.55;0.30;;;;;;;;;;5067805;28;20060;-72
2022/12/20 07:32:25;;;;;;;0.57;0.20;;;;;;;;;;5069354;28;20060;-72
2022/12/20 07:34:55;;;;;;;1.50;0.45;;;;;;;;;;5069351;28;20431;-73
2022/12/20 07:37:25;;;;;;;1.23;0.25;;;;;;;;;;5069506;28;20403;-72
2022/12/20 07:39:54;;;;;;;2.30;0.20;;;;;;;;;;5069433;28;20415;-73
2022/12/20 07:42:25;;;;;;;0.40;0.20;;;;;;;;;;5069887;28;20053;-73
2022/12/20 07:45:06;;;;;;;1.13;0.30;;;;;;;;;;5085052;28;20048;-72
2022/12/20 07:47:36;;;;;;;0.52;0.17;;;;;;;;;;5067493;28;20060;-72
2022/12/20 07:50:07;;;;;;;1.33;0.25;;;;;;;;;;5069343;28;20049;-72
2022/12/20 07:52:40;;;;;;;1.67;0.30;;;;;;;;;;5069436;28;20036;-72
2022/12/20 07:55:12;;;;;;;4.03;0.55;;;;;;;;;;5069376;28;20063;-72
2022/12/20 07:57:52;;;;;;;1.27;0.22;;;;;;;;;;5069439;28;20044;-72
2022/12/20 08:00:23;;;;;;;5.22;0.30;;;;;;;;;;5069151;28;20048;-72
2022/12/20 08:03:11;;;;;;;0.50;0.13;;;;;;;;;;5066958;28;20059;-72
2022/12/20 08:05:45;;;;;;;0.35;0.20;;;;;;;;;;5069516;28;20419;-73
2022/12/20 08:08:16;;;;;;;0.10;0.10;;;;;;;;;;5068942;28;20055;-76
2022/12/20 08:10:49;;;;;;;0.93;0.20;;;;;;;;;;5069022;28;20522;-72
2022/12/20 08:13:20;;;;;;;0.22;0.22;;;;;;;;;;5068877;28;20052;-72
2022/12/20 08:15:49;;;;;;;1.17;0.32;;;;;;;;;;5068512;28;20059;-72
2022/12/20 08:18:19;;;;;;;1.50;0.30;;;;;;;;;;5067235;28;20059;-72
2022/12/20 08:20:49;;;;;;;1.98;0.40;;;;;;;;;;5068519;28;20041;-72
2022/12/20 08:23:19;;;;;;;0.80;0.22;;;;;;;;;;5067057;28;20067;-72
2022/12/20 08:25:49;;;;;;;1.65;0.40;;;;;;;;;;5068562;28;20049;-72
2022/12/20 08:28:19;;;;;;;4.25;0.60;;;;;;;;;;5068428;28;20049;-72
2022/12/20 08:30:49;;;;;;;0.45;0.30;;;;;;;;;;5067703;28;20060;-72
2022/12/20 08:33:19;;;;;;;0.65;0.20;;;;;;;;;;5068336;28;20503;-72
2022/12/20 08:35:57;;;;;;;0.40;0.20;;;;;;;;;;5068798;28;20541;-72
2022/12/20 08:38:31;;;;;;;2.20;0.50;;;;;;;;;;5068636;28;20049;-73
2022/12/20 08:41:10;;;;;;;1.02;0.32;;;;;;;;;;5066271;28;20048;-73
2022/12/20 08:43:41;;;;;;;0.52;0.35;;;;;;;;;;5068369;28;20048;-72
2022/12/20 08:46:12;;;;;;;2.70;0.85;;;;;;;;;;5068151;28;20511;-73
2022/12/20 08:48:42;;;;;;;1.23;0.30;;;;;;;;;;5068384;28;20047;-72
2022/12/20 08:51:12;;;;;;;0.80;0.38;;;;;;;;;;5068615;28;20397;-72
2022/12/20 08:53:41;;;;;;;2.35;0.57;;;;;;;;;;5067964;28;20049;-72
2022/12/20 08:56:14;;;;;;;1.42;0.40;;;;;;;;;;5068455;28;20048;-73
2022/12/20 08:58:44;;;;;;;1.02;0.30;;;;;;;;;;5068513;28;20056;-72
2022/12/20 09:01:16;;;;;;;1.38;0.77;;;;;;;;;;5067759;28;20053;-73
2022/12/20 09:03:48;;;;;;;1.95;0.45;;;;;;;;;;5068065;28;20487;-73
2022/12/20 09:06:20;;;;;;;0.77;0.38;;;;;;;;;;5083286;28;20056;-73
2022/12/20 09:08:50;;;;;;;1.33;0.50;;;;;;;;;;5067900;28;20052;-72
2022/12/20 09:11:24;;;;;;;4.07;0.60;;;;;;;;;;5067469;28;20059;-73
2022/12/20 09:13:57;;;;;;;2.05;0.60;;;;;;;;;;5067442;28;20048;-73
2022/12/20 09:16:32;;;;;;;4.97;1.15;;;;;;;;;;5067737;28;20048;-72
2022/12/20 09:19:02;;;;;;;2.35;0.57;;;;;;;;;;5066355;28;20518;-74
2022/12/20 09:21:34;;;;;;;2.65;0.60;;;;;;;;;;5067454;28;20067;-74
2022/12/20 09:24:05;;;;;;;2.08;0.50;;;;;;;;;;5067078;28;20486;-72
2022/12/20 09:26:35;;;;;;;4.40;0.47;;;;;;;;;;5067007;28;20047;-72
2022/12/20 09:29:06;;;;;;;1.65;0.60;;;;;;;;;;5067198;28;20044;-73
2022/12/20 09:31:36;;;;;;;1.83;0.55;;;;;;;;;;5067511;28;20040;-72
2022/12/20 09:34:09;;;;;;;3.80;0.55;;;;;;;;;;5067584;28;20052;-77
2022/12/20 09:36:38;;;;;;;1.25;0.65;;;;;;;;;;5066934;28;20071;-74
2022/12/20 09:39:10;;;;;;;1.38;0.63;;;;;;;;;;5067535;28;20048;-74
2022/12/20 09:41:43;;;;;;;1.83;0.43;;;;;;;;;;5067432;28;20048;-73
2022/12/20 09:44:22;;;;;;;0.70;0.38;;;;;;;;;;5067697;28;20040;-73
2022/12/20 09:46:59;;;;;;;5.40;0.80;;;;;;;;;;5065316;28;20075;-81
2022/12/20 09:49:41;;;;;;;1.15;0.40;;;;;;;;;;5066778;28;20049;-74
2022/12/20 09:52:38;;;;;;;1.73;0.70;;;;;;;;;;5066880;28;20053;-74
2022/12/20 09:55:08;;;;;;;1.60;0.50;;;;;;;;;;5066657;28;20052;-77
2022/12/20 09:57:47;;;;;;;7.38;3.92;;;;;;;;;;5066290;28;20403;-74
2022/12/20 10:00:19;;;;;;;4.32;0.75;;;;;;;;;;5066770;28;20044;-74
2022/12/20 10:02:49;;;;;;;4.28;1.75;;;;;;;;;;5067578;28;20047;-71
2022/12/20 10:05:58;;;;;;;2.42;0.60;;;;;;;;;;5066921;28;20048;-74
2022/12/20 10:08:59;;;;;;;0.73;0.47;;;;;;;;;;5067111;28;20503;-73
2022/12/20 10:12:07;;;;;;;3.08;0.63;;;;;;;;;;5066782;28;20411;-74
2022/12/20 10:15:17;;;;;;;7.75;0.93;;;;;;;;;;5066663;28;20055;-74
2022/12/20 10:18:10;;;;;;;1.55;0.40;;;;;;;;;;5066363;28;20534;-73
2022/12/20 10:20:54;;;;;;;6.15;0.90;;;;;;;;;;5066100;28;20411;-74
2022/12/20 10:23:39;;;;;;;0.75;0.40;;;;;;;;;;5066493;28;20040;-74
2022/12/20 10:26:11;;;;;;;8.95;3.92;;;;;;;;;;5066340;28;20823;-74
2022/12/20 10:28:41;;;;;;;2.97;0.70;;;;;;;;;;5066413;28;20040;-73
2022/12/20 10:31:18;;;;;;;1.50;0.47;;;;;;;;;;5066698;28;20410;-73
2022/12/20 10:33:48;;;;;;;1.27;0.45;;;;;;;;;;5067615;28;20058;-77
2022/12/20 10:36:33;;;;;;;7.25;2.17;;;;;;;;;;5066931;28;20824;-77
2022/12/20 10:39:09;;;;;;;1.10;0.52;;;;;;;;;;5065429;28;20055;-74
2022/12/20 10:41:44;;;;;;;7.00;0.80;;;;;;;;;;5066497;28;20051;-74
2022/12/20 10:44:14;;;;;;;2.60;0.38;;;;;;;;;;5066650;28;20486;-75
2022/12/20 10:47:22;;;;;;;3.85;0.63;;;;;;;;;;5066515;28;20540;-75
2022/12/20 10:50:15;;;;;;;12.20;1.23;;;;;;;;;;5065168;28;20053;-75
2022/12/20 10:53:02;;;;;;;3.92;0.77;;;;;;;;;;5066304;28;20400;-74
2022/12/20 10:55:35;;;;;;;2.35;0.73;;;;;;;;;;5066269;28;20067;-73
2022/12/20 10:58:14;;;;;;;2.08;0.73;;;;;;;;;;5066443;28;20399;-74
2022/12/20 11:00:46;;;;;;;1.33;0.63;;;;;;;;;;5066281;28;20052;-71
2022/12/20 11:03:23;;;;;;;3.17;0.77;;;;;;;;;;5066012;28;20049;-71
2022/12/20 11:05:58;;;;;;;1.88;0.63;;;;;;;;;;5069767;28;20036;-75
2022/12/20 11:08:32;;;;;;;2.63;0.50;;;;;;;;;;5070319;28;20044;-71
2022/12/20 11:11:25;;;;;;;2.42;0.38;;;;;;;;;;5069740;28;20043;-72
2022/12/20 11:14:13;;;;;;;7.18;1.20;;;;;;;;;;5070119;28;20040;-73
2022/12/20 11:16:46;;;;;;;1.58;0.60;;;;;;;;;;5069496;28;20044;-72
2022/12/20 11:19:42;;;;;;;1.90;0.60;;;;;;;;;;5068457;28;20404;-73
2022/12/20 11:22:55;;;;;;;2.20;0.50;;;;;;;;;;5060104;28;20475;-73
2022/12/20 11:25:39;;;;;;;1.92;0.47;;;;;;;;;;5068347;28;20068;-72
2022/12/20 11:28:24;;;;;;;1.92;0.50;;;;;;;;;;5069238;28;20403;-73
2022/12/20 11:31:15;;;;;;;2.03;0.68;;;;;;;;;;5069709;28;20427;-72
2022/12/20 11:34:04;;;;;;;2.85;0.63;;;;;;;;;;5069135;28;20522;-72
2022/12/20 11:36:52;;;;;;;2.28;0.65;;;;;;;;;;5084321;28;20060;-74
2022/12/20 11:39:31;;;;;;;1.83;0.57;;;;;;;;;;5069275;28;20044;-72
2022/12/20 11:42:10;;;;;;;1.88;0.50;;;;;;;;;;5069072;28;20040;-72
2022/12/20 11:44:44;;;;;;;7.57;0.60;;;;;;;;;;5069232;28;20040;-73
2022/12/20 11:47:31;;;;;;;4.88;0.60;;;;;;;;;;5069613;28;20053;-73
2022/12/20 11:50:36;;;;;;;2.15;0.70;;;;;;;;;;5069324;28;20037;-73
2022/12/20 11:53:09;;;;;;;;;;;;;;;;;;5069879;28;20514;-73
2022/12/20 11:55:44;;;;;;;3.13;0.60;;;;;;;;;;5069569;28;20406;-73
2022/12/20 11:58:21;;;;;;;2.42;0.50;;;;;;;;;;5068996;28;20423;-72
2022/12/20 12:01:06;;;;;;;2.40;0.70;;;;;;;;;;5068816;28;20048;-72
2022/12/20 12:03:42;;;;;;;2.42;0.60;;;;;;;;;;5068974;28;20037;-72
2022/12/20 12:06:23;;;;;;;1.73;0.50;;;;;;;;;;5068881;28;20045;-73
2022/12/20 12:09:14;;;;;;;1.42;0.40;;;;;;;;;;5084602;28;20068;-73
2022/12/20 12:11:54;;;;;;;1.45;0.50;;;;;;;;;;5069619;28;20087;-73
2022/12/20 12:15:03;;;;;;;3.20;0.90;;;;;;;;;;5068117;28;20048;-72
2022/12/20 12:17:42;;;;;;;1.75;0.50;;;;;;;;;;5068557;28;20045;-72
2022/12/20 12:20:39;;;;;;;3.80;0.80;;;;;;;;;;5069331;28;20071;-74
2022/12/20 12:23:22;;;;;;;1.75;0.70;;;;;;;;;;5068819;28;20056;-72
2022/12/20 12:25:53;;;;;;;0.70;0.40;;;;;;;;;;5068100;28;20059;-72
2022/12/20 12:28:23;;;;;;;1.45;0.47;;;;;;;;;;5068101;28;20056;-76
2022/12/20 12:31:06;;;;;;;1.27;0.70;;;;;;;;;;5066888;28;20407;-73
2022/12/20 12:34:03;;;;;;;3.08;1.02;;;;;;;;;;5068947;28;20048;-73
2022/12/20 12:37:07;;;;;;;2.28;1.00;;;;;;;;;;5049648;28;20060;-73
2022/12/20 12:40:01;;;;;;;2.92;0.70;;;;;;;;;;5068460;28;20059;-74
2022/12/20 12:42:49;;;;;;;1.73;0.60;;;;;;;;;;5062406;28;20546;-72
2022/12/20 12:45:24;;;;;;;0.98;0.70;;;;;;;;;;5068210;28;20055;-73
2022/12/20 12:48:23;;;;;;;1.65;0.60;;;;;;;;;;5068230;28;20052;-72
2022/12/20 12:50:56;;;;;;;3.95;0.70;;;;;;;;;;5067889;28;20052;-72
2022/12/20 12:53:42;;;;;;;1.38;0.60;;;;;;;;;;5068215;28;20044;-72
2022/12/20 12:56:28;;;;;;;1.67;0.88;;;;;;;;;;5068239;28;20048;-73
2022/12/20 12:59:32;;;;;;;0.80;0.45;;;;;;;;;;5067758;28;20059;-76
2022/12/20 13:02:03;;;;;;;2.45;0.70;;;;;;;;;;5068638;28;20426;-76
2022/12/20 13:04:59;;;;;;;1.02;0.52;;;;;;;;;;5066913;28;20490;-73
2022/12/20 13:07:32;;;;;;;1.05;0.50;;;;;;;;;;5049700;28;20049;-73
2022/12/20 13:10:28;;;;;;;2.53;0.77;;;;;;;;;;5067692;28;20045;-74
2022/12/20 13:13:11;;;;;;;2.65;0.80;;;;;;;;;;5048990;28;20048;-73
2022/12/20 13:15:41;;;;;;;3.13;0.82;;;;;;;;;;5068254;28;20052;-73
2022/12/20 13:18:11;;;;;;;3.03;0.73;;;;;;;;;;5065355;28;20061;-72
2022/12/20 13:20:42;;;;;;;2.70;0.73;;;;;;;;;;5067589;28;20059;-72
2022/12/20 13:23:18;;;;;;;3.28;1.00;;;;;;;;;;5067509;28;20392;-73
2022/12/20 13:25:52;;;;;;;4.38;0.70;;;;;;;;;;5066797;28;20044;-73
2022/12/20 13:28:22;;;;;;;1.25;0.60;;;;;;;;;;5066723;28;20044;-73
2022/12/20 13:31:03;;;;;;;4.95;0.90;;;;;;;;;;5067332;28;20052;-74
2022/12/20 13:33:48;;;;;;;3.67;0.75;;;;;;;;;;5066965;28;20044;-74
2022/12/20 13:36:36;;;;;;;1.60;0.73;;;;;;;;;;5067484;28;20063;-74
2022/12/20 13:39:21;;;;;;;4.20;1.20;;;;;;;;;;5067038;28;20415;-73
2022/12/20 13:42:18;;;;;;;1.98;0.60;;;;;;;;;;5067202;28;20044;-77
2022/12/20 13:44:51;;;;;;;1.90;0.73;;;;;;;;;;5067312;28;20052;-73
2022/12/20 13:47:43;;;;;;;1.45;0.73;;;;;;;;;;5066147;28;20052;-74
2022/12/20 13:50:35;;;;;;;1.65;0.50;;;;;;;;;;5067031;28;20037;-75
2022/12/20 13:53:15;;;;;;;4.45;1.50;;;;;;;;;;5067232;28;20059;-73
2022/12/20 13:55:45;;;;;;;0.98;0.50;;;;;;;;;;5067603;28;20048;-74
2022/12/20 13:58:27;;;;;;;1.05;0.40;;;;;;;;;;5067056;28;20049;-76
2022/12/20 14:01:13;;;;;;;1.38;0.50;;;;;;;;;;5067301;28;20045;-73
2022/12/20 14:03:46;;;;;;;2.08;0.65;;;;;;;;;;5067283;28;20059;-73
2022/12/20 14:06:19;;;;;;;1.15;0.80;;;;;;;;;;5067419;28;20048;-71
2022/12/20 14:08:55;;;;;;;3.15;1.05;;;;;;;;;;5067023;28;20049;-74
2022/12/20 14:11:26;;;;;;;3.33;1.00;;;;;;;;;;5066933;28;20055;-77
2022/12/20 14:13:59;;;;;;;1.33;0.63;;;;;;;;;;5066580;28;20529;-73
2022/12/20 14:16:32;;;;;;;0.60;0.60;;;;;;;;;;5066176;28;20503;-72
2022/12/20 14:19:03;;;;;;;3.88;0.50;;;;;;;;;;5066610;28;20044;-72
2022/12/20 14:21:38;;;;;;;2.97;0.85;;;;;;;;;;5066179;28;20047;-74
2022/12/20 14:24:15;;;;;;;0.80;0.60;;;;;;;;;;5066640;28;20045;-77
2022/12/20 14:26:48;;;;;;;2.80;1.25;;;;;;;;;;5081199;28;20056;-73
2022/12/20 14:29:25;;;;;;;2.70;0.60;;;;;;;;;;5064802;28;20060;-74
2022/12/20 14:31:56;;;;;;;1.60;0.60;;;;;;;;;;5066382;28;20051;-72
2022/12/20 14:34:28;;;;;;;2.70;0.60;;;;;;;;;;5066669;28;20040;-73
2022/12/20 14:37:26;;;;;;;0.88;0.52;;;;;;;;;;5066060;28;20071;-75
2022/12/20 14:40:12;;;;;;;0.77;0.57;;;;;;;;;;5066277;28;20037;-73
2022/12/20 14:42:42;;;;;;;0.63;0.52;;;;;;;;;;5074829;28;20040;-72
2022/12/20 14:45:19;;;;;;;6.63;0.63;;;;;;;;;;5092861;28;20043;-73
2022/12/20 14:48:06;;;;;;;3.08;0.82;;;;;;;;;;5096847;28;20071;-74
2022/12/20 14:50:40;;;;;;;2.97;1.30;;;;;;;;;;5066445;28;20533;-73
2022/12/20 14:53:37;;;;;;;1.73;0.70;;;;;;;;;;5066803;28;20052;-74
2022/12/20 14:56:15;;;;;;;2.25;0.68;;;;;;;;;;5099800;28;20434;-73
2022/12/20 14:59:00;;;;;;;0.93;0.50;;;;;;;;;;5107163;28;20518;-74
2022/12/20 15:01:31;;;;;;;1.13;0.50;;;;;;;;;;5105779;28;20505;-73
2022/12/20 15:04:33;;;;;;;1.13;0.50;;;;;;;;;;5106505;28;20047;-74
2022/12/20 15:07:03;;;;;;;1.40;0.60;;;;;;;;;;5107273;28;20055;-74
2022/12/20 15:09:33;;;;;;;1.60;0.40;;;;;;;;;;5099390;28;20048;-74
2022/12/20 15:12:03;;;;;;;2.20;0.45;;;;;;;;;;5106199;28;20054;-74
2022/12/20 15:14:39;;;;;;;1.15;0.43;;;;;;;;;;5107176;28;20056;-78
2022/12/20 15:17:13;;;;;;;0.52;0.45;;;;;;;;;;5106342;28;20055;-73
2022/12/20 15:19:43;;;;;;;3.50;0.60;;;;;;;;;;5106925;28;20047;-74
2022/12/20 15:22:16;;;;;;;2.05;0.60;;;;;;;;;;5106510;28;20066;-74
2022/12/20 15:24:47;;;;;;;1.77;0.47;;;;;;;;;;5106298;28;20054;-74
2022/12/20 15:27:16;;;;;;;1.02;0.57;;;;;;;;;;5105962;28;20071;-74
2022/12/20 15:29:47;;;;;;;0.85;0.43;;;;;;;;;;5106717;28;20043;-73
2022/12/20 15:32:27;;;;;;;3.58;0.60;;;;;;;;;;5106740;28;20648;-74
2022/12/20 15:34:56;;;;;;;2.05;0.57;;;;;;;;;;5104546;28;20055;-73
2022/12/20 15:37:26;;;;;;;2.08;0.52;;;;;;;;;;5106931;28;20051;-73
2022/12/20 15:39:56;;;;;;;0.93;0.50;;;;;;;;;;5106559;28;20043;-74
2022/12/20 15:42:26;;;;;;;4.13;0.73;;;;;;;;;;5106282;28;20494;-74
2022/12/20 15:44:56;;;;;;;1.23;0.57;;;;;;;;;;5106145;28;20048;-73